Time;durP1;ratioP1;P1;durP2;ratioP2;P2;SDS_P1;SDS_P2;PMS_P1;PMS_P2;Temp;Humidity;BMP_temperature;BMP_pressure;BME280_temperature;BME280_humidity;BME280_pressure;Samples;Min_cycle;Max_cycle;Signal;HPM_P1;HPM_P2
2023/04/21 00:01:45;;;;;;;;;;;;;;;19.86;64.93;101333.84;2245536;77;51528;-75
2023/04/21 00:04:48;;;;;;;;;;;;;;;19.83;64.85;101331.52;2240332;79;51586;-76
2023/04/21 00:07:50;;;;;;;;;;;;;;;19.86;64.68;101328.48;2238012;78;51867;-76
2023/04/21 00:10:51;;;;;;;;;;;;;;;19.86;64.51;101325.80;2275310;77;51605;-76
2023/04/21 00:13:53;;;;;;;;;;;;;;;19.83;65.11;101330.17;2207035;80;51454;-76
2023/04/21 00:16:55;;;;;;;;;;;;;;;19.90;64.59;101331.16;2256483;78;50249;-76
2023/04/21 00:19:57;;;;;;;;;;;;;;;20.08;64.13;101330.91;2207117;78;52324;-77
2023/04/21 00:22:59;;;;;;;;;;;;;;;20.22;63.64;101330.98;2261744;77;51557;-76
2023/04/21 00:26:01;;;;;;;;;;;;;;;20.35;63.31;101329.58;2229062;79;52295;-76
2023/04/21 00:29:03;;;;;;;;;;;;;;;20.43;63.00;101329.52;2233175;79;51548;-76
2023/04/21 00:32:07;;;;;;;;;;;;;;;20.47;62.86;101332.16;2202649;80;51243;-76
2023/04/21 00:35:08;;;;;;;;;;;;;;;20.47;62.87;101329.47;2211802;79;22972;-76
2023/04/21 00:38:10;;;;;;;;;;;;;;;20.45;62.83;101327.48;2285403;77;51459;-76
2023/04/21 00:41:11;;;;;;;;;;;;;;;20.43;62.83;101324.97;2214938;79;51454;-76
2023/04/21 00:44:13;;;;;;;;;;;;;;;20.39;62.94;101323.64;2194640;80;51470;-77
2023/04/21 00:47:14;;;;;;;;;;;;;;;20.37;62.99;101316.77;2202499;80;50273;-76
2023/04/21 00:50:16;;;;;;;;;;;;;;;20.34;63.06;101314.45;2237669;78;51504;-76
2023/04/21 00:53:18;;;;;;;;;;;;;;;20.32;63.10;101316.47;2226777;79;51513;-77
2023/04/21 00:56:20;;;;;;;;;;;;;;;20.30;63.09;101313.15;2227041;78;49629;-77
2023/04/21 00:59:22;;;;;;;;;;;;;;;20.26;63.17;101315.34;2261642;78;51646;-76
2023/04/21 01:02:24;;;;;;;;;;;;;;;20.23;63.26;101318.38;2273388;78;50465;-77
2023/04/21 01:05:25;;;;;;;;;;;;;;;20.20;63.37;101322.27;2237935;78;50752;-76
2023/04/21 01:08:27;;;;;;;;;;;;;;;20.16;63.48;101308.01;2242557;78;50339;-77
2023/04/21 01:11:30;;;;;;;;;;;;;;;20.13;63.67;101309.72;2242715;78;50433;-75
2023/04/21 01:14:32;;;;;;;;;;;;;;;20.09;63.85;101311.93;2251879;78;51662;-76
2023/04/21 01:17:37;;;;;;;;;;;;;;;20.07;63.81;101313.95;2242838;78;50720;-77
2023/04/21 01:20:37;;;;;;;;;;;;;;;20.06;63.80;101310.91;2273698;78;22767;-76
2023/04/21 01:23:39;;;;;;;;;;;;;;;20.04;64.04;101311.63;2252324;78;51521;-76
2023/04/21 01:26:43;;;;;;;;;;;;;;;20.01;64.02;101307.92;2257554;78;50274;-75
2023/04/21 01:29:49;;;;;;;;;;;;;;;19.96;64.28;101303.10;2252883;78;22325;-75
2023/04/21 01:32:48;;;;;;;;;;;;;;;19.96;64.32;101298.21;2254027;78;21750;-75
2023/04/21 01:35:50;;;;;;;;;;;;;;;19.91;64.56;101295.22;2254206;78;51485;-75
2023/04/21 01:38:51;;;;;;;;;;;;;;;19.89;64.76;101294.58;2275732;78;51616;-75
2023/04/21 01:41:54;;;;;;;;;;;;;;;19.91;64.73;101291.19;2275964;78;50627;-75
2023/04/21 01:44:56;;;;;;;;;;;;;;;19.90;64.64;101296.24;2253374;78;51168;-74
2023/04/21 01:47:57;;;;;;;;;;;;;;;19.89;64.71;101294.07;2253629;78;50295;-74
2023/04/21 01:50:59;;;;;;;;;;;;;;;19.87;64.58;101295.26;2251804;78;50432;-75
2023/04/21 01:54:00;;;;;;;;;;;;;;;19.85;64.61;101294.59;2272832;78;50630;-75
2023/04/21 01:57:02;;;;;;;;;;;;;;;19.84;64.54;101288.90;2240088;78;50097;-73
2023/04/21 02:00:04;;;;;;;;;;;;;;;19.81;64.65;101292.77;2270306;78;50460;-74
2023/04/21 02:03:06;;;;;;;;;;;;;;;19.80;64.81;101283.86;2251859;78;51420;-74
2023/04/21 02:06:07;;;;;;;;;;;;;;;19.93;64.26;101287.83;2251745;78;51551;-74
2023/04/21 02:09:09;;;;;;;;;;;;;;;20.10;63.78;101281.34;2221895;78;52541;-74
2023/04/21 02:12:10;;;;;;;;;;;;;;;20.25;63.35;101276.05;2251732;78;51506;-73
2023/04/21 02:15:12;;;;;;;;;;;;;;;20.34;63.04;101282.19;2272723;78;51512;-74
2023/04/21 02:18:15;;;;;;;;;;;;;;;20.40;62.80;101274.78;2251805;78;50265;-73
2023/04/21 02:21:17;;;;;;;;;;;;;;;20.41;62.70;101280.47;2227844;78;52646;-74
2023/04/21 02:24:18;;;;;;;;;;;;;;;20.39;62.71;101279.29;2237954;79;51452;-74
2023/04/21 02:27:20;;;;;;;;;;;;;;;20.37;62.75;101279.14;2243579;78;51429;-73
2023/04/21 02:30:22;;;;;;;;;;;;;;;20.35;62.73;101279.85;2251468;78;51481;-74
2023/04/21 02:33:23;;;;;;;;;;;;;;;20.32;62.80;101277.02;2251638;78;49452;-73
2023/04/21 02:36:25;;;;;;;;;;;;;;;20.30;62.85;101270.98;2251583;78;50253;-75
2023/04/21 02:39:26;;;;;;;;;;;;;;;20.27;62.86;101274.03;2243160;77;51551;-74
2023/04/21 02:42:28;;;;;;;;;;;;;;;20.25;63.00;101285.97;2275056;78;50374;-74
2023/04/21 02:45:29;;;;;;;;;;;;;;;20.22;63.12;101273.73;2229032;78;51264;-75
2023/04/21 02:48:31;;;;;;;;;;;;;;;20.19;63.21;101278.09;2249174;78;50730;-75
2023/04/21 02:51:33;;;;;;;;;;;;;;;20.14;63.29;101274.63;2217074;79;50814;-75
2023/04/21 02:54:34;;;;;;;;;;;;;;;20.10;63.35;101270.61;2216923;79;50456;-75
2023/04/21 02:57:36;;;;;;;;;;;;;;;20.08;63.49;101270.45;2216743;78;50076;-75
2023/04/21 03:00:37;;;;;;;;;;;;;;;20.05;63.53;101273.50;2245374;78;51521;-76
2023/04/21 03:03:39;;;;;;;;;;;;;;;20.00;63.63;101274.02;2251890;78;50659;-75
2023/04/21 03:06:41;;;;;;;;;;;;;;;19.97;63.71;101270.36;2251897;78;50641;-76
2023/04/21 03:09:42;;;;;;;;;;;;;;;19.96;63.74;101270.01;2222240;78;52502;-76
2023/04/21 03:12:44;;;;;;;;;;;;;;;19.94;63.72;101271.55;2251860;78;51478;-76
2023/04/21 03:15:46;;;;;;;;;;;;;;;19.91;62.52;101269.22;2260174;78;51599;-77
2023/04/21 03:18:48;;;;;;;;;;;;;;;19.77;61.42;101265.93;2254532;77;50282;-76
2023/04/21 03:21:49;;;;;;;;;;;;;;;19.77;61.72;101261.91;2188657;79;51638;-77
2023/04/21 03:24:53;;;;;;;;;;;;;;;19.76;61.24;101266.95;2228837;78;50665;-74
2023/04/21 03:27:55;;;;;;;;;;;;;;;19.94;60.75;101268.03;2266567;77;51464;-73
2023/04/21 03:30:57;;;;;;;;;;;;;;;20.11;60.48;101265.55;2259597;78;50210;-76
2023/04/21 03:33:58;;;;;;;;;;;;;;;20.26;60.34;101271.51;2207268;78;49896;-77
2023/04/21 03:37:00;;;;;;;;;;;;;;;20.38;60.16;101267.39;2248624;78;50651;-77
2023/04/21 03:40:01;;;;;;;;;;;;;;;20.47;60.11;101269.50;2248544;78;50052;-74
2023/04/21 03:43:03;;;;;;;;;;;;;;;20.49;60.09;101262.09;2248685;78;51458;-75
2023/04/21 03:46:05;;;;;;;;;;;;;;;20.48;60.17;101270.67;2281097;78;51520;-73
2023/04/21 03:49:06;;;;;;;;;;;;;;;20.49;60.22;101265.61;2274329;78;51437;-75
2023/04/21 03:52:08;;;;;;;;;;;;;;;20.45;60.33;101269.70;2212181;79;50042;-75
2023/04/21 03:55:10;;;;;;;;;;;;;;;20.41;60.56;101267.86;2211909;79;50369;-76
2023/04/21 03:58:12;;;;;;;;;;;;;;;20.39;60.72;101270.39;2188590;79;52457;-76
2023/04/21 04:01:13;;;;;;;;;;;;;;;20.34;60.96;101269.59;2243523;79;51472;-74
2023/04/21 04:04:15;;;;;;;;;;;;;;;20.31;61.02;101275.33;2223968;79;51527;-76
2023/04/21 04:07:16;;;;;;;;;;;;;;;20.29;61.04;101273.83;2244113;79;51441;-75
2023/04/21 04:10:18;;;;;;;;;;;;;;;20.26;61.19;101271.00;2223618;78;50216;-75
2023/04/21 04:13:21;;;;;;;;;;;;;;;20.24;61.31;101274.36;2232756;78;50288;-75
2023/04/21 04:16:23;;;;;;;;;;;;;;;20.19;61.37;101276.27;2274981;78;52391;-78
2023/04/21 04:19:26;;;;;;;;;;;;;;;20.14;61.46;101277.31;2246552;78;51471;-77
2023/04/21 04:22:28;;;;;;;;;;;;;;;20.10;61.58;101276.49;2201777;80;52546;-76
2023/04/21 04:25:29;;;;;;;;;;;;;;;20.07;61.71;101280.88;2202048;80;52344;-77
2023/04/21 04:28:32;;;;;;;;;;;;;;;20.06;61.74;101284.56;2202068;80;50795;-76
2023/04/21 04:31:34;;;;;;;;;;;;;;;20.01;61.91;101279.72;2218323;79;50071;-77
2023/04/21 04:34:36;;;;;;;;;;;;;;;19.98;62.04;101284.10;2239285;78;50238;-78
2023/04/21 04:37:38;;;;;;;;;;;;;;;19.95;62.08;101287.98;2222489;80;50800;-77
2023/04/21 04:40:41;;;;;;;;;;;;;;;19.94;62.21;101284.98;2202423;80;50790;-77
2023/04/21 04:43:43;;;;;;;;;;;;;;;19.93;62.13;101294.54;2202472;80;51512;-76
2023/04/21 04:46:44;;;;;;;;;;;;;;;19.91;62.22;101286.68;2202104;80;51368;-78
2023/04/21 04:49:46;;;;;;;;;;;;;;;19.85;62.56;101287.36;2189253;78;50411;-78
2023/04/21 04:52:48;;;;;;;;;;;;;;;19.84;62.41;101292.41;2222723;80;50247;-77
2023/04/21 04:55:50;;;;;;;;;;;;;;;19.82;62.56;101291.75;2222176;79;50780;-76
2023/04/21 04:58:51;;;;;;;;;;;;;;;19.77;62.82;101292.27;2178249;80;51697;-77
2023/04/21 05:01:53;;;;;;;;;;;;;;;19.79;62.77;101294.28;2218737;79;51448;-76
2023/04/21 05:04:55;;;;;;;;;;;;;;;19.84;62.70;101292.92;2231712;78;51435;-75
2023/04/21 05:07:56;;;;;;;;;;;;;;;19.83;62.79;101299.30;2240778;78;51430;-76
2023/04/21 05:10:58;;;;;;;;;;;;;;;19.84;62.60;101298.30;2253512;78;50916;-74
2023/04/21 05:14:00;;;;;;;;;;;;;;;19.78;62.91;101297.98;2244295;78;51531;-74
2023/04/21 05:17:01;;;;;;;;;;;;;;;19.78;62.95;101297.98;2208579;79;51516;-73
2023/04/21 05:20:06;;;;;;;;;;;;;;;19.80;62.72;101295.94;2207037;80;50717;-74
2023/04/21 05:23:08;;;;;;;;;;;;;;;19.93;62.50;101302.59;2206642;80;51054;-74
2023/04/21 05:26:10;;;;;;;;;;;;;;;20.03;62.42;101295.67;2206498;80;52171;-73
2023/04/21 05:29:11;;;;;;;;;;;;;;;20.13;62.32;101298.97;2229682;80;51373;-73
2023/04/21 05:32:13;;;;;;;;;;;;;;;20.25;62.27;101302.09;2204954;78;51193;-74
2023/04/21 05:35:14;;;;;;;;;;;;;;;20.33;62.24;101300.17;2261563;78;51586;-74
2023/04/21 05:38:16;;;;;;;;;;;;;;;20.40;62.31;101304.34;2289008;77;50261;-73
2023/04/21 05:41:18;;;;;;;;;;;;;;;20.44;62.24;101306.98;2254550;77;50439;-74
2023/04/21 05:44:19;;;;;;;;;;;;;;;20.47;62.29;101301.24;2210601;79;52444;-74
2023/04/21 05:47:21;;;;;;;;;;;;;;;20.51;62.36;101303.08;2223751;79;51655;-74
2023/04/21 05:50:23;;;;;;;;;;;;;;;20.52;62.48;101304.23;2197008;80;51522;-74
2023/04/21 05:53:27;;;;;;;;;;;;;;;20.53;62.32;101303.23;2200931;80;50527;-73
2023/04/21 05:56:28;;;;;;;;;;;;;;;20.56;62.19;101306.09;2202291;80;22609;-74
2023/04/21 05:59:30;;;;;;;;;;;;;;;20.60;62.14;101309.59;2179719;79;52267;-73
2023/04/21 06:02:31;;;;;;;;;;;;;;;20.62;62.13;101302.16;2244181;78;51499;-73
2023/04/21 06:05:33;;;;;;;;;;;;;;;20.65;62.10;101297.80;2236717;78;50292;-73
2023/04/21 06:08:34;;;;;;;;;;;;;;;20.65;62.08;101297.80;2238229;78;50284;-73
2023/04/21 06:11:36;;;;;;;;;;;;;;;20.70;61.96;101299.08;2221865;79;51172;-75
2023/04/21 06:14:38;;;;;;;;;;;;;;;20.73;61.97;101297.38;2252435;78;50741;-74
2023/04/21 06:17:39;;;;;;;;;;;;;;;20.73;62.00;101296.89;2240297;78;51476;-72
2023/04/21 06:20:41;;;;;;;;;;;;;;;20.72;61.99;101292.51;2239224;78;51530;-73
2023/04/21 06:23:42;;;;;;;;;;;;;;;20.75;61.87;101299.38;2215230;79;49595;-79
2023/04/21 06:26:44;;;;;;;;;;;;;;;20.77;61.85;101291.97;2242120;78;50301;-72
2023/04/21 06:29:46;;;;;;;;;;;;;;;20.76;61.83;101285.76;2276895;78;51506;-71
2023/04/21 06:32:48;;;;;;;;;;;;;;;20.77;61.72;101283.91;2275774;78;51499;-72
2023/04/21 06:35:49;;;;;;;;;;;;;;;20.77;61.57;101287.42;2213235;79;51663;-72
2023/04/21 06:38:51;;;;;;;;;;;;;;;20.79;61.50;101285.91;2226125;79;50732;-71
2023/04/21 06:41:52;;;;;;;;;;;;;;;20.77;61.43;101282.55;2245361;79;51430;-71
2023/04/21 06:44:55;;;;;;;;;;;;;;;20.83;61.34;101288.05;2253061;79;51443;-74
2023/04/21 06:47:57;;;;;;;;;;;;;;;20.87;61.29;101283.13;2232850;79;51074;-73
2023/04/21 06:51:00;;;;;;;;;;;;;;;20.82;61.02;101285.53;2270202;77;50760;-72
2023/04/21 06:54:01;;;;;;;;;;;;;;;20.76;59.57;101280.38;2223094;80;50067;-74
2023/04/21 06:57:03;;;;;;;;;;;;;;;20.71;56.30;101280.61;2215230;78;50753;-75
2023/04/21 07:00:05;;;;;;;;;;;;;;;20.63;55.51;101273.45;2207967;78;51779;-74
2023/04/21 07:03:07;;;;;;;;;;;;;;;20.55;54.79;101267.63;2223129;80;50455;-74
2023/04/21 07:06:08;;;;;;;;;;;;;;;20.50;54.85;101265.96;2222932;78;50237;-76
2023/04/21 07:09:10;;;;;;;;;;;;;;;20.45;53.08;101265.66;2222594;80;50259;-73
2023/04/21 07:12:12;;;;;;;;;;;;;;;20.40;52.83;101266.71;2217116;79;50670;-73
2023/04/21 07:15:13;;;;;;;;;;;;;;;20.34;51.96;101273.62;2217483;79;51598;-73
2023/04/21 07:18:15;;;;;;;;;;;;;;;20.31;51.71;101270.47;2237816;78;51514;-74
2023/04/21 07:21:16;;;;;;;;;;;;;;;20.28;49.54;101270.31;2238133;78;51520;-73
2023/04/21 07:24:18;;;;;;;;;;;;;;;20.30;47.79;101271.49;2216138;77;51681;-73
2023/04/21 07:27:20;;;;;;;;;;;;;;;20.30;46.63;101268.30;2229622;79;51456;-74
2023/04/21 07:30:21;;;;;;;;;;;;;;;20.31;47.28;101264.58;2219879;78;51663;-75
2023/04/21 07:33:23;;;;;;;;;;;;;;;20.29;45.38;101265.25;2203661;81;50427;-75
2023/04/21 07:36:27;;;;;;;;;;;;;;;20.30;45.52;101264.26;2218966;78;51647;-74
2023/04/21 07:39:28;;;;;;;;;;;;;;;20.40;44.81;101268.89;2222506;79;22536;-74
2023/04/21 07:42:29;;;;;;;;;;;;;;;20.44;44.46;101265.31;2252887;78;50586;-75
2023/04/21 07:45:31;;;;;;;;;;;;;;;20.48;45.15;101262.61;2239129;79;52315;-74
2023/04/21 07:48:32;;;;;;;;;;;;;;;20.44;43.79;101261.28;2179145;80;50051;-76
2023/04/21 07:51:34;;;;;;;;;;;;;;;20.38;43.59;101264.70;2192828;81;51403;-75
2023/04/21 07:54:36;;;;;;;;;;;;;;;20.30;44.07;101262.92;2199097;81;50240;-74
2023/04/21 07:57:38;;;;;;;;;;;;;;;20.21;44.25;101256.75;2235953;78;50281;-73
2023/04/21 08:00:41;;;;;;;;;;;;;;;20.03;44.10;101264.78;2259160;78;51756;-75
2023/04/21 08:03:42;;;;;;;;;;;;;;;19.94;44.92;101259.97;2216579;79;49984;-73
2023/04/21 08:06:44;;;;;;;;;;;;;;;19.91;44.11;101262.98;2276688;78;50216;-74
2023/04/21 08:09:45;;;;;;;;;;;;;;;19.87;43.86;101271.91;2253499;78;50472;-74
2023/04/21 08:12:47;;;;;;;;;;;;;;;19.80;43.23;101265.06;2211961;79;51160;-73
2023/04/21 08:15:49;;;;;;;;;;;;;;;19.76;43.99;101252.19;2231473;79;50077;-73
2023/04/21 08:18:50;;;;;;;;;;;;;;;19.78;43.83;101254.16;2254012;79;50339;-73
2023/04/21 08:21:52;;;;;;;;;;;;;;;19.90;44.47;101253.27;2254351;79;50231;-74
2023/04/21 08:24:53;;;;;;;;;;;;;;;20.06;44.97;101250.47;2233178;79;50096;-73
2023/04/21 08:27:55;;;;;;;;;;;;;;;20.25;45.47;101251.04;2242922;78;51565;-73
2023/04/21 08:30:57;;;;;;;;;;;;;;;20.40;45.85;101250.59;2223029;80;51430;-73
2023/04/21 08:34:00;;;;;;;;;;;;;;;20.51;46.18;101243.42;2241765;78;50250;-73
2023/04/21 08:37:02;;;;;;;;;;;;;;;20.55;46.53;101238.54;2223258;80;22391;-74
2023/04/21 08:40:05;;;;;;;;;;;;;;;20.57;46.90;101250.78;2222713;79;50310;-75
2023/04/21 08:43:07;;;;;;;;;;;;;;;20.59;47.19;101250.61;2258548;77;50316;-74
2023/04/21 08:46:08;;;;;;;;;;;;;;;20.57;47.46;101240.03;2241225;78;50377;-73
2023/04/21 08:49:10;;;;;;;;;;;;;;;20.58;47.72;101242.23;2247132;79;52238;-73
2023/04/21 08:52:16;;;;;;;;;;;;;;;20.56;48.01;101233.51;2239961;78;50529;-73
2023/04/21 08:55:15;;;;;;;;;;;;;;;20.54;48.24;101230.98;2222332;79;22516;-74
2023/04/21 08:58:17;;;;;;;;;;;;;;;20.52;48.52;101238.36;2257572;78;51434;-73
2023/04/21 09:01:18;;;;;;;;;;;;;;;20.50;48.65;101239.08;2259015;78;51664;-76
2023/04/21 09:04:20;;;;;;;;;;;;;;;20.47;48.84;101246.13;2222072;78;50665;-74
2023/04/21 09:07:34;;;;;;;;;;;;;;;20.45;49.00;101240.95;2239030;78;50113;-74
2023/04/21 09:10:43;;;;;;;;;;;;;;;20.42;49.21;101235.09;2223128;80;50499;-73
2023/04/21 09:13:44;;;;;;;;;;;;;;;20.39;49.46;101226.05;2202412;80;52388;-74
2023/04/21 09:16:46;;;;;;;;;;;;;;;20.37;49.68;101240.17;2189576;80;50323;-73
2023/04/21 09:19:48;;;;;;;;;;;;;;;20.36;49.84;101242.55;2226914;80;50360;-74
2023/04/21 09:22:50;;;;;;;;;;;;;;;20.32;50.01;101238.05;2223175;79;50296;-73
2023/04/21 09:25:51;;;;;;;;;;;;;;;20.30;50.15;101236.55;2223426;78;51563;-73
2023/04/21 09:28:53;;;;;;;;;;;;;;;20.28;50.21;101232.69;2208577;78;50199;-73
2023/04/21 09:31:54;;;;;;;;;;;;;;;20.24;50.39;101231.37;2202898;80;50113;-74
2023/04/21 09:34:58;;;;;;;;;;;;;;;20.22;50.88;101230.73;2202730;80;50551;-75
2023/04/21 09:38:00;;;;;;;;;;;;;;;20.21;51.09;101229.87;2241197;77;50656;-74
2023/04/21 09:41:01;;;;;;;;;;;;;;;20.20;51.26;101227.39;2240714;78;51230;-73
2023/04/21 09:44:03;;;;;;;;;;;;;;;20.20;51.50;101220.16;2216110;79;51782;-74
2023/04/21 09:47:05;;;;;;;;;;;;;;;20.16;51.59;101224.20;2211333;79;50086;-74
2023/04/21 09:50:08;;;;;;;;;;;;;;;20.16;50.97;101224.20;2238537;79;51320;-75
2023/04/21 09:53:11;;;;;;;;;;;;;;;20.15;51.26;101225.23;2233547;79;50171;-75
2023/04/21 09:56:13;;;;;;;;;;;;;;;20.15;51.34;101223.89;2232882;79;51587;-76
2023/04/21 09:59:17;;;;;;;;;;;;;;;20.14;51.42;101214.65;2232741;78;50674;-74
2023/04/21 10:02:18;;;;;;;;;;;;;;;20.13;51.55;101218.36;2283937;76;50256;-74
2023/04/21 10:05:20;;;;;;;;;;;;;;;20.10;51.73;101216.05;2238147;78;49655;-78
2023/04/21 10:08:22;;;;;;;;;;;;;;;20.08;51.93;101218.89;2214762;78;52507;-74
2023/04/21 10:11:24;;;;;;;;;;;;;;;20.07;52.35;101212.38;2235069;79;51495;-75
2023/04/21 10:14:25;;;;;;;;;;;;;;;20.06;52.49;101213.37;2204094;80;51465;-76
2023/04/21 10:17:27;;;;;;;;;;;;;;;20.03;52.59;101205.16;2202112;80;52514;-76
2023/04/21 10:20:29;;;;;;;;;;;;;;;20.03;52.65;101211.88;2202322;80;51422;-73
2023/04/21 10:23:38;;;;;;;;;;;;;;;20.01;52.67;101209.87;2230430;78;51600;-74
2023/04/21 10:26:40;;;;;;;;;;;;;;;19.98;52.80;101207.55;2244094;78;50472;-74
2023/04/21 10:29:42;;;;;;;;;;;;;;;19.96;52.93;101197.48;2265405;77;49579;-75
2023/04/21 10:32:45;;;;;;;;;;;;;;;19.95;53.07;101195.31;2240673;78;51498;-74
2023/04/21 10:36:00;;;;;;;;;;;;;;;19.94;53.27;101187.45;2240256;79;50393;-74
2023/04/21 10:39:02;;;;;;;;;;;;;;;19.93;53.40;101193.82;2240717;78;50716;-74
2023/04/21 10:42:15;;;;;;;;;;;;;;;19.91;53.51;101189.98;2209225;79;51051;-74
2023/04/21 10:45:16;;;;;;;;;;;;;;;19.91;53.58;101187.78;2275654;78;51509;-74
2023/04/21 10:48:19;;;;;;;;;;;;;;;19.88;53.67;101178.23;2258642;78;51381;-74
2023/04/21 10:51:22;;;;;;;;;;;;;;;19.88;53.73;101180.92;2238458;78;50379;-74
2023/04/21 10:54:28;;;;;;;;;;;;;;;19.87;53.79;101179.77;2220875;79;51401;-74
2023/04/21 10:57:30;;;;;;;;;;;;;;;19.87;54.06;101173.06;2245903;78;22288;-74
2023/04/21 11:00:30;;;;;;;;;;;;;;;19.86;54.17;101171.38;2202098;80;22517;-74
2023/04/21 11:03:35;;;;;;;;;;;;;;;19.84;54.49;101170.74;2221869;79;51475;-74
2023/04/21 11:06:36;;;;;;;;;;;;;;;19.84;54.79;101164.86;2221380;78;51350;-73
2023/04/21 11:09:38;;;;;;;;;;;;;;;19.85;55.02;101153.59;2221151;79;51344;-74
2023/04/21 11:12:40;;;;;;;;;;;;;;;19.84;55.39;101155.45;2221645;79;51537;-75
2023/04/21 11:15:42;;;;;;;;;;;;;;;19.84;55.74;101147.40;2221702;79;50701;-74
2023/04/21 11:18:46;;;;;;;;;;;;;;;19.88;56.05;101143.84;2198946;79;52503;-74
2023/04/21 11:21:49;;;;;;;;;;;;;;;19.86;56.49;101137.80;2242607;78;51531;-75
2023/04/21 11:24:53;;;;;;;;;;;;;;;19.82;56.92;101143.22;2201286;79;50970;-76
2023/04/21 11:27:55;;;;;;;;;;;;;;;19.80;57.47;101145.56;2239102;79;50422;-75
2023/04/21 11:30:56;;;;;;;;;;;;;;;19.87;57.62;101132.78;2213082;78;51118;-75
2023/04/21 11:33:58;;;;;;;;;;;;;;;20.00;57.52;101132.48;2217282;79;50085;-75
2023/04/21 11:37:00;;;;;;;;;;;;;;;20.13;57.37;101122.47;2276826;78;51479;-75
2023/04/21 11:40:05;;;;;;;;;;;;;;;20.23;57.26;101118.19;2278185;78;51572;-75
2023/04/21 11:43:05;;;;;;;;;;;;;;;20.30;57.28;101116.45;2276975;77;22466;-76
2023/04/21 11:46:13;;;;;;;;;;;;;;;20.36;57.10;101116.22;2275721;78;50402;-74
2023/04/21 11:49:20;;;;;;;;;;;;;;;20.33;53.25;101121.97;2228051;79;50673;-76
2023/04/21 11:52:28;;;;;;;;;;;;;;;20.21;50.43;101114.33;2242208;78;22320;-75
2023/04/21 11:55:29;;;;;;;;;;;;;;;20.12;48.51;101116.78;2230278;78;52396;-75
2023/04/21 11:58:31;;;;;;;;;;;;;;;20.09;49.31;101125.21;2260065;78;51398;-75
2023/04/21 12:01:33;;;;;;;;;;;;;;;20.06;47.30;101114.80;2279089;77;50618;-76
2023/04/21 12:04:34;;;;;;;;;;;;;;;20.06;49.12;101105.92;2245317;78;51444;-75
2023/04/21 12:07:37;;;;;;;;;;;;;;;20.07;50.11;101103.06;2219310;78;52518;-75
2023/04/21 12:10:39;;;;;;;;;;;;;;;20.08;50.88;101119.50;2231253;78;51361;-75
2023/04/21 12:13:40;;;;;;;;;;;;;;;20.07;51.42;101102.23;2228270;79;51516;-75
2023/04/21 12:16:42;;;;;;;;;;;;;;;20.08;51.93;101094.48;2223460;80;51453;-73
2023/04/21 12:19:43;;;;;;;;;;;;;;;20.06;52.36;101091.97;2203473;80;52332;-76
2023/04/21 12:22:45;;;;;;;;;;;;;;;20.06;52.93;101089.28;2232688;79;50728;-74
2023/04/21 12:25:47;;;;;;;;;;;;;;;20.06;53.23;101087.94;2251571;78;50504;-73
2023/04/21 12:28:52;;;;;;;;;;;;;;;20.05;53.68;101081.42;2247566;78;50688;-74
2023/04/21 12:31:54;;;;;;;;;;;;;;;20.04;54.17;101087.31;2261895;78;50674;-74
2023/04/21 12:34:56;;;;;;;;;;;;;;;20.04;54.37;101078.39;2208098;78;50613;-75
2023/04/21 12:37:57;;;;;;;;;;;;;;;20.02;54.62;101079.94;2249589;78;50725;-74
2023/04/21 12:40:59;;;;;;;;;;;;;;;20.01;55.01;101071.05;2279780;78;50805;-74
2023/04/21 12:44:01;;;;;;;;;;;;;;;20.01;55.16;101075.08;2235162;79;51660;-75
2023/04/21 12:47:04;;;;;;;;;;;;;;;19.99;55.36;101061.51;2224544;78;50781;-74
2023/04/21 12:50:06;;;;;;;;;;;;;;;19.99;55.61;101062.34;2244738;78;50823;-74
2023/04/21 12:53:08;;;;;;;;;;;;;;;19.98;55.82;101067.36;2254363;78;51193;-74
2023/04/21 12:56:10;;;;;;;;;;;;;;;19.98;55.96;101053.93;2222068;78;52309;-74
2023/04/21 12:59:12;;;;;;;;;;;;;;;19.98;56.17;101057.13;2225478;79;50752;-74
2023/04/21 13:02:13;;;;;;;;;;;;;;;19.96;56.26;101061.84;2239537;79;50698;-74
2023/04/21 13:05:15;;;;;;;;;;;;;;;19.96;56.35;101053.30;2207609;80;52162;-75
2023/04/21 13:08:17;;;;;;;;;;;;;;;19.96;56.50;101050.62;2240238;79;49788;-75
2023/04/21 13:11:18;;;;;;;;;;;;;;;19.97;56.66;101042.05;2242470;78;50106;-74
2023/04/21 13:14:21;;;;;;;;;;;;;;;19.96;56.79;101043.05;2261243;78;50890;-74
2023/04/21 13:17:24;;;;;;;;;;;;;;;19.96;56.71;101033.16;2266720;77;49989;-74
2023/04/21 13:20:27;;;;;;;;;;;;;;;19.98;56.90;101035.64;2184757;80;52367;-75
2023/04/21 13:23:29;;;;;;;;;;;;;;;19.96;56.93;101029.61;2230780;78;50365;-74
2023/04/21 13:26:32;;;;;;;;;;;;;;;19.96;57.02;101036.33;2240387;78;51379;-75
2023/04/21 13:29:34;;;;;;;;;;;;;;;19.97;57.05;101033.98;2241472;78;50799;-74
2023/04/21 13:32:35;;;;;;;;;;;;;;;19.96;57.13;101025.59;2209556;78;52376;-76
2023/04/21 13:35:37;;;;;;;;;;;;;;;19.97;57.20;101013.84;2289916;77;50578;-75
2023/04/21 13:38:39;;;;;;;;;;;;;;;20.00;57.27;101016.98;2271231;77;51423;-75
2023/04/21 13:41:41;;;;;;;;;;;;;;;20.03;57.20;101013.09;2223373;80;50536;-74
2023/04/21 13:44:42;;;;;;;;;;;;;;;20.06;57.18;101010.04;2241007;78;50280;-74
2023/04/21 13:47:44;;;;;;;;;;;;;;;20.05;57.31;101011.59;2252060;78;50686;-75
2023/04/21 13:50:45;;;;;;;;;;;;;;;19.98;57.59;101011.47;2203204;80;51405;-75
2023/04/21 13:53:47;;;;;;;;;;;;;;;19.96;57.66;101003.62;2235446;79;50562;-74
2023/04/21 13:56:49;;;;;;;;;;;;;;;19.96;57.77;101002.75;2240001;78;50780;-74
2023/04/21 13:59:52;;;;;;;;;;;;;;;19.92;58.06;100989.39;2236664;78;50186;-75
2023/04/21 14:02:54;;;;;;;;;;;;;;;19.87;58.16;100995.81;2285751;76;50341;-75
2023/04/21 14:05:56;;;;;;;;;;;;;;;19.89;58.14;100991.11;2241165;78;50768;-74
2023/04/21 14:08:58;;;;;;;;;;;;;;;19.90;58.21;100987.39;2194047;80;52316;-75
2023/04/21 14:12:01;;;;;;;;;;;;;;;19.88;58.37;100978.67;2205325;79;52420;-75
2023/04/21 14:15:03;;;;;;;;;;;;;;;19.87;58.46;100973.81;2216690;79;51726;-74
2023/04/21 14:18:04;;;;;;;;;;;;;;;19.87;58.62;100971.65;2255722;78;50652;-75
2023/04/21 14:21:06;;;;;;;;;;;;;;;19.84;58.63;100968.82;2203375;79;50649;-74
2023/04/21 14:24:08;;;;;;;;;;;;;;;19.80;58.78;100968.34;2211064;79;51423;-74
2023/04/21 14:27:09;;;;;;;;;;;;;;;19.83;58.76;100971.67;2233990;77;51613;-75
2023/04/21 14:30:12;;;;;;;;;;;;;;;19.84;58.78;100964.80;2254393;77;51513;-75
2023/04/21 14:33:13;;;;;;;;;;;;;;;19.85;58.86;100970.99;2266572;78;50757;-75
2023/04/21 14:36:15;;;;;;;;;;;;;;;19.86;58.85;100958.73;2227907;79;49949;-75
2023/04/21 14:39:16;;;;;;;;;;;;;;;19.87;58.88;100962.25;2243106;79;50493;-75
2023/04/21 14:42:18;;;;;;;;;;;;;;;19.86;58.92;100949.82;2233432;79;50960;-75
2023/04/21 14:45:20;;;;;;;;;;;;;;;19.87;58.82;100950.99;2225256;79;52361;-75
2023/04/21 14:48:22;;;;;;;;;;;;;;;19.89;58.80;100930.68;2225532;79;50692;-74
2023/04/21 14:51:23;;;;;;;;;;;;;;;19.90;58.84;100943.08;2233568;79;50754;-74
2023/04/21 14:54:25;;;;;;;;;;;;;;;19.90;58.97;100940.39;2213052;79;51471;-75
2023/04/21 14:57:26;;;;;;;;;;;;;;;19.91;58.96;100928.62;2234883;78;51680;-74
2023/04/21 15:00:30;;;;;;;;;;;;;;;19.92;58.95;100930.30;2213590;78;52343;-75
2023/04/21 15:03:31;;;;;;;;;;;;;;;19.93;58.93;100919.36;2208253;79;21902;-75
2023/04/21 15:06:33;;;;;;;;;;;;;;;19.94;58.93;100922.91;2263360;77;50714;-75
2023/04/21 15:09:34;;;;;;;;;;;;;;;19.94;58.91;100918.87;2231162;79;51851;-75
2023/04/21 15:12:37;;;;;;;;;;;;;;;19.94;58.96;100915.67;2244360;78;50608;-75
2023/04/21 15:15:40;;;;;;;;;;;;;;;19.95;58.97;100915.98;2279742;78;50488;-75
2023/04/21 15:18:41;;;;;;;;;;;;;;;19.95;59.04;100913.81;2260402;78;49960;-75
2023/04/21 15:21:43;;;;;;;;;;;;;;;19.95;59.08;100901.21;2234889;79;51711;-75
2023/04/21 15:24:45;;;;;;;;;;;;;;;19.96;59.04;100904.73;2285428;76;50757;-75
2023/04/21 15:27:46;;;;;;;;;;;;;;;19.95;59.11;100902.55;2241293;78;50642;-75
2023/04/21 15:30:48;;;;;;;;;;;;;;;19.96;59.06;100900.21;2217609;79;50671;-76
2023/04/21 15:33:50;;;;;;;;;;;;;;;19.97;59.12;100903.20;2255988;78;51721;-75